Time;durP1;ratioP1;P1;durP2;ratioP2;P2;SDS_P1;SDS_P2;PMS_P1;PMS_P2;Temp;Humidity;BMP_temperature;BMP_pressure;BME280_temperature;BME280_humidity;BME280_pressure;Samples;Min_cycle;Max_cycle;Signal;HPM_P1;HPM_P2
2022/05/16 00:00:29;;;;;;;10.32;2.63;;;15.10;93.00;;;;;;5050137;28;20040;-51
2022/05/16 00:02:59;;;;;;;7.47;3.00;;;15.10;93.00;;;;;;5065835;28;20037;-51
2022/05/16 00:05:25;;;;;;;10.40;3.47;;;15.10;93.20;;;;;;5069716;28;20071;-50
2022/05/16 00:07:51;;;;;;;;;;;15.10;93.20;;;;;;5054578;28;20037;-50
2022/05/16 00:10:17;;;;;;;10.98;3.30;;;15.10;93.60;;;;;;5054470;28;19923;-50
2022/05/16 00:12:42;;;;;;;9.90;3.28;;;15.10;93.40;;;;;;5069957;28;20174;-50
2022/05/16 00:15:12;;;;;;;9.45;2.97;;;15.00;93.30;;;;;;5064893;28;20545;-50
2022/05/16 00:17:38;;;;;;;8.95;4.15;;;15.00;93.50;;;;;;5050757;28;20037;-50
2022/05/16 00:20:04;;;;;;;12.30;3.85;;;15.00;93.60;;;;;;5053689;28;20032;-51
2022/05/16 00:22:30;;;;;;;11.55;4.03;;;15.00;93.60;;;;;;5052568;28;20121;-52
2022/05/16 00:24:55;;;;;;;7.72;2.97;;;14.90;93.70;;;;;;5063128;28;20099;-51
2022/05/16 00:27:21;;;;;;;10.32;3.45;;;14.90;93.70;;;;;;5052202;28;20037;-49
2022/05/16 00:29:46;;;;;;;9.23;3.50;;;14.90;93.70;;;;;;5066123;28;20037;-50
2022/05/16 00:32:13;;;;;;;12.25;3.53;;;14.90;94.10;;;;;;5051192;28;20283;-50
2022/05/16 00:34:39;;;;;;;13.15;3.30;;;14.90;93.80;;;;;;5060974;28;20401;-50
2022/05/16 00:37:05;;;;;;;9.60;3.00;;;14.90;93.80;;;;;;5054722;28;20120;-50
2022/05/16 00:39:32;;;;;;;8.98;3.40;;;14.80;93.70;;;;;;5060689;28;20048;-50
2022/05/16 00:41:58;;;;;;;11.82;2.80;;;14.90;93.90;;;;;;5058073;28;20032;-50
2022/05/16 00:44:24;;;;;;;10.45;3.42;;;14.90;93.80;;;;;;5063485;28;20170;-49
2022/05/16 00:46:51;;;;;;;14.02;4.00;;;14.80;93.90;;;;;;5069047;28;20072;-49
2022/05/16 00:49:27;;;;;;;9.27;3.20;;;14.80;93.80;;;;;;5063691;28;20064;-51
2022/05/16 00:52:03;;;;;;;7.50;3.65;;;14.80;93.90;;;;;;5049387;28;20087;-50
2022/05/16 00:54:49;;;;;;;9.60;3.30;;;14.80;93.80;;;;;;5056521;28;20090;-53
2022/05/16 00:57:19;;;;;;;9.50;4.23;;;14.80;93.90;;;;;;5069366;28;20266;-50
2022/05/16 00:59:51;;;;;;;9.10;3.05;;;14.70;93.70;;;;;;5059472;28;20048;-50
2022/05/16 01:05:04;;;;;;;9.73;2.70;;;14.70;93.50;;;;;;5059536;28;20048;-50
2022/05/16 01:07:33;;;;;;;16.17;3.40;;;14.70;93.50;;;;;;5069588;28;20097;-49
2022/05/16 01:09:59;;;;;;;12.55;3.70;;;14.70;93.50;;;;;;5058064;28;20128;-49
2022/05/16 01:12:32;;;;;;;6.82;3.08;;;14.70;93.50;;;;;;5050190;28;20115;-50
2022/05/16 01:15:00;;;;;;;9.68;3.13;;;14.70;93.50;;;;;;5067731;28;20083;-49
2022/05/16 01:17:26;;;;;;;10.30;2.92;;;14.60;93.40;;;;;;5062661;28;20116;-50
2022/05/16 01:19:52;;;;;;;13.60;3.63;;;14.60;93.50;;;;;;5067568;28;20311;-49
2022/05/16 01:22:28;;;;;;;12.77;3.40;;;14.50;93.40;;;;;;5058725;28;20067;-49
2022/05/16 01:24:56;;;;;;;9.13;4.28;;;14.50;93.60;;;;;;5048407;28;20050;-49
2022/05/16 01:27:22;;;;;;;8.18;3.10;;;14.40;93.50;;;;;;5051672;28;20129;-50
2022/05/16 01:29:48;;;;;;;7.90;3.30;;;14.40;93.60;;;;;;5053052;28;20076;-49
2022/05/16 01:32:14;;;;;;;11.13;2.70;;;14.30;93.60;;;;;;5065930;28;20086;-50
2022/05/16 01:34:40;;;;;;;10.43;3.13;;;14.30;93.70;;;;;;5072029;28;20029;-50
2022/05/16 01:37:06;;;;;;;9.05;3.15;;;14.20;93.70;;;;;;5058610;28;20037;-51
2022/05/16 01:39:32;;;;;;;9.93;4.00;;;14.20;93.70;;;;;;5052737;28;20037;-50
2022/05/16 01:41:58;;;;;;;10.27;3.40;;;14.20;93.80;;;;;;5064011;28;20074;-49
2022/05/16 01:44:23;;;;;;;9.98;2.78;;;14.10;93.70;;;;;;5074613;28;20063;-49
2022/05/16 01:46:49;;;;;;;9.50;3.65;;;14.10;93.80;;;;;;5058608;28;20378;-49
2022/05/16 01:49:14;;;;;;;16.52;4.10;;;14.10;93.80;;;;;;5063101;28;20043;-50
2022/05/16 01:51:40;;;;;;;10.27;3.55;;;14.10;93.90;;;;;;5055665;28;20044;-52
2022/05/16 01:54:06;;;;;;;8.55;2.95;;;14.10;93.80;;;;;;5052680;28;20163;-49
2022/05/16 01:56:33;;;;;;;11.85;3.22;;;14.00;93.80;;;;;;5059998;28;20055;-49
2022/05/16 01:59:00;;;;;;;8.65;2.47;;;14.00;93.90;;;;;;5072300;28;20048;-51
2022/05/16 02:01:26;;;;;;;14.30;3.22;;;14.00;93.80;;;;;;5064517;28;20064;-49
2022/05/16 02:03:51;;;;;;;11.93;2.95;;;14.00;93.80;;;;;;5052081;28;20281;-49
2022/05/16 02:06:18;;;;;;;10.97;2.90;;;14.00;93.80;;;;;;5056365;28;20068;-49
2022/05/16 02:08:44;;;;;;;8.32;2.53;;;14.00;93.70;;;;;;5070214;28;20690;-50
2022/05/16 02:11:09;;;;;;;16.65;3.53;;;14.00;93.90;;;;;;5060310;28;20485;-49
2022/05/16 02:13:37;;;;;;;12.95;2.63;;;13.90;93.70;;;;;;5066993;28;20064;-50
2022/05/16 02:16:03;;;;;;;10.00;2.83;;;13.90;93.70;;;;;;5070361;28;20048;-49
2022/05/16 02:18:29;;;;;;;29.42;4.00;;;13.80;93.80;;;;;;5061424;28;20048;-49
2022/05/16 02:24:38;;;;;;;;;;;13.70;93.90;;;;;;5058828;28;20059;-49
2022/05/16 02:26:25;;;;;;;10.27;2.88;;;13.50;94.20;;;;;;5054706;28;20044;-49
2022/05/16 02:28:51;;;;;;;8.88;2.95;;;13.50;94.30;;;;;;5058731;28;20410;-50
2022/05/16 02:31:16;;;;;;;8.95;2.80;;;13.50;94.40;;;;;;5051756;28;20045;-49
2022/05/16 02:33:42;;;;;;;6.75;2.60;;;13.50;94.40;;;;;;5068346;28;20045;-49
2022/05/16 02:36:07;;;;;;;12.17;3.20;;;13.50;94.40;;;;;;5060209;28;20044;-50
2022/05/16 02:38:33;;;;;;;8.30;3.23;;;13.50;94.50;;;;;;5061863;28;20283;-49
2022/05/16 02:40:58;;;;;;;12.60;2.00;;;13.50;94.40;;;;;;5058839;28;20361;-52
2022/05/16 02:43:24;;;;;;;13.73;3.33;;;13.50;94.40;;;;;;5064522;28;20040;-49
2022/05/16 02:45:50;;;;;;;10.13;2.47;;;13.50;94.50;;;;;;5062146;28;20101;-51
2022/05/16 02:48:15;;;;;;;10.17;2.43;;;13.50;94.40;;;;;;5059484;28;20195;-50
2022/05/16 02:50:41;;;;;;;10.70;2.87;;;13.50;94.40;;;;;;5052381;28;20626;-49
2022/05/16 02:53:07;;;;;;;13.52;2.72;;;13.50;94.40;;;;;;5051769;28;20403;-50
2022/05/16 02:55:33;;;;;;;17.38;3.10;;;13.50;94.40;;;;;;5065366;28;20398;-49
2022/05/16 02:57:58;;;;;;;8.52;1.98;;;13.50;94.40;;;;;;5061220;28;20079;-51
2022/05/16 03:00:24;;;;;;;7.97;2.60;;;13.50;94.30;;;;;;5063790;28;20047;-50
2022/05/16 03:02:50;;;;;;;12.23;2.90;;;13.40;94.30;;;;;;5070227;28;20501;-51
2022/05/16 03:05:16;;;;;;;11.32;2.45;;;13.30;94.30;;;;;;5058244;28;20138;-49
2022/05/16 03:07:42;;;;;;;13.07;3.45;;;13.20;94.40;;;;;;5050645;28;20112;-49
2022/05/16 03:10:08;;;;;;;10.45;3.22;;;13.10;94.60;;;;;;5061283;28;20115;-49
2022/05/16 03:12:34;;;;;;;7.35;2.85;;;13.00;94.90;;;;;;5070287;28;20036;-49
2022/05/16 03:15:00;;;;;;;8.63;3.10;;;12.90;95.20;;;;;;5059190;28;20043;-49
2022/05/16 03:17:27;;;;;;;8.70;2.97;;;12.90;95.40;;;;;;5050381;28;20037;-49
2022/05/16 03:19:52;;;;;;;16.45;4.50;;;12.80;95.60;;;;;;5053478;28;20033;-51
2022/05/16 03:22:18;;;;;;;7.80;2.57;;;12.80;95.80;;;;;;5066456;28;20051;-51
2022/05/16 03:24:44;;;;;;;13.70;3.67;;;12.80;95.90;;;;;;5057080;28;20048;-49
2022/05/16 03:27:10;;;;;;;13.35;2.28;;;12.80;96.00;;;;;;5058463;28;20278;-49
2022/05/16 03:29:36;;;;;;;;;;;12.80;96.00;;;;;;5060562;28;20045;-50
2022/05/16 03:32:02;;;;;;;7.60;2.35;;;12.80;96.20;;;;;;5057560;28;19916;-49
2022/05/16 03:34:27;;;;;;;8.95;2.47;;;12.80;96.10;;;;;;5064507;28;20168;-51
2022/05/16 03:36:53;;;;;;;6.53;2.25;;;12.80;96.20;;;;;;5055753;28;20037;-48
2022/05/16 03:42:03;;;;;;;11.40;2.33;;;12.70;96.30;;;;;;5062779;28;20154;-49
2022/05/16 03:44:29;;;;;;;9.73;2.88;;;12.60;96.40;;;;;;5054146;28;20506;-50
2022/05/16 03:46:54;;;;;;;7.97;2.63;;;12.60;96.50;;;;;;5051733;28;20025;-49
2022/05/16 03:49:20;;;;;;;11.00;3.65;;;12.60;96.60;;;;;;5063449;28;20068;-51
2022/05/16 03:51:45;;;;;;;9.27;2.87;;;12.60;96.70;;;;;;5067858;28;20032;-49
2022/05/16 03:54:11;;;;;;;15.85;3.25;;;12.60;96.80;;;;;;5057205;28;20295;-49
2022/05/16 03:56:37;;;;;;;9.10;2.95;;;12.60;96.80;;;;;;5050015;28;20051;-49
2022/05/16 03:59:03;;;;;;;6.25;2.50;;;12.70;96.80;;;;;;5066671;28;20051;-50
2022/05/16 04:01:29;;;;;;;5.38;2.20;;;12.70;96.80;;;;;;5067256;28;20044;-49
2022/05/16 04:03:55;;;;;;;14.00;2.15;;;12.70;96.80;;;;;;5063911;28;20095;-52
2022/05/16 04:06:21;;;;;;;9.88;2.97;;;12.70;96.90;;;;;;5052465;28;20036;-51
2022/05/16 04:08:47;;;;;;;8.02;2.90;;;12.70;97.00;;;;;;5060001;28;20075;-51
2022/05/16 04:11:17;;;;;;;7.38;2.70;;;12.70;97.10;;;;;;5052994;28;20159;-52
2022/05/16 04:13:43;;;;;;;9.55;2.47;;;12.70;97.30;;;;;;5056498;28;20382;-49
2022/05/16 04:16:09;;;;;;;19.38;2.92;;;12.70;97.30;;;;;;5050328;28;20047;-50
2022/05/16 04:18:36;;;;;;;7.32;2.05;;;12.70;97.40;;;;;;5054533;28;20052;-51
2022/05/16 04:21:02;;;;;;;;;;;12.70;97.40;;;;;;5056713;28;20051;-51
2022/05/16 04:23:28;;;;;;;17.55;2.47;;;12.80;97.70;;;;;;5062043;28;19924;-50
2022/05/16 04:25:53;;;;;;;10.55;2.55;;;12.80;97.30;;;;;;5061929;28;20033;-50
2022/05/16 04:28:19;;;;;;;12.07;2.88;;;12.90;97.30;;;;;;5055698;28;20545;-49
2022/05/16 04:30:44;;;;;;;5.97;2.20;;;12.90;97.30;;;;;;5073664;28;20032;-50
2022/05/16 04:33:10;;;;;;;4.77;1.77;;;12.90;97.20;;;;;;5058175;28;20287;-50
2022/05/16 04:35:37;;;;;;;8.60;2.58;;;13.00;97.10;;;;;;5053744;28;20040;-49
2022/05/16 04:38:04;;;;;;;8.27;2.75;;;13.00;97.00;;;;;;5055197;28;20487;-50
2022/05/16 04:40:29;;;;;;;9.05;2.88;;;13.10;97.00;;;;;;5058043;28;20516;-50
2022/05/16 04:42:55;;;;;;;3.97;2.10;;;13.10;97.00;;;;;;5067196;28;20040;-50
2022/05/16 04:45:23;;;;;;;11.80;2.77;;;13.20;97.00;;;;;;5053021;28;20044;-51
2022/05/16 04:47:51;;;;;;;8.10;2.17;;;13.20;96.90;;;;;;5056927;28;20364;-51
2022/05/16 04:50:25;;;;;;;7.93;2.63;;;13.30;96.80;;;;;;5065843;28;20438;-50
2022/05/16 04:52:51;;;;;;;14.05;3.25;;;13.30;96.80;;;;;;5049087;28;20410;-49
2022/05/16 04:55:17;;;;;;;39.72;4.25;;;13.40;96.80;;;;;;5051329;28;20033;-49
2022/05/16 04:57:43;;;;;;;5.40;2.58;;;13.40;96.70;;;;;;5067212;28;20559;-49
2022/05/16 05:00:11;;;;;;;6.75;2.45;;;13.40;96.60;;;;;;5052867;28;20076;-49
2022/05/16 05:02:37;;;;;;;8.02;2.70;;;13.50;96.70;;;;;;5051778;28;20114;-49
2022/05/16 05:05:04;;;;;;;9.13;2.42;;;13.60;96.90;;;;;;5068700;28;20048;-49
2022/05/16 05:07:29;;;;;;;;;;;13.70;96.50;;;;;;5068185;28;20159;-50
2022/05/16 05:15:23;;;;;;;6.95;2.20;;;13.80;96.20;;;;;;5071108;28;20041;-50
2022/05/16 05:17:49;;;;;;;12.45;2.85;;;13.90;96.10;;;;;;5054972;28;20033;-49
2022/05/16 05:20:15;;;;;;;8.27;2.30;;;13.90;96.20;;;;;;5054072;28;20097;-52
2022/05/16 05:22:46;;;;;;;7.70;2.92;;;14.00;96.20;;;;;;5066328;28;20112;-50
2022/05/16 05:25:18;;;;;;;6.75;3.13;;;14.00;96.00;;;;;;5059302;28;20456;-50
2022/05/16 05:27:45;;;;;;;10.45;3.28;;;14.10;96.00;;;;;;5063332;28;20040;-51
2022/05/16 05:30:14;;;;;;;7.47;3.05;;;14.20;96.00;;;;;;5063134;28;20091;-52
2022/05/16 05:32:42;;;;;;;7.78;2.42;;;14.40;95.80;;;;;;5067338;28;20036;-49
2022/05/16 05:35:08;;;;;;;8.05;2.78;;;14.50;95.80;;;;;;5068548;28;20401;-50
2022/05/16 05:37:35;;;;;;;6.78;2.70;;;14.50;95.80;;;;;;5053039;28;20048;-50
2022/05/16 05:40:01;;;;;;;;;;;14.70;95.60;;;;;;5053622;28;20036;-49
2022/05/16 05:42:28;;;;;;;8.13;2.50;;;14.80;95.50;;;;;;5062317;28;19986;-49
2022/05/16 05:44:53;;;;;;;6.53;2.75;;;14.90;95.40;;;;;;5062849;28;20130;-53
2022/05/16 05:47:20;;;;;;;8.60;2.50;;;15.00;95.20;;;;;;5061929;28;20068;-52
2022/05/16 05:49:45;;;;;;;;;;;15.20;95.10;;;;;;5063015;28;20044;-50
2022/05/16 05:52:11;;;;;;;9.45;2.38;;;15.30;94.90;;;;;;5062771;28;19917;-50
2022/05/16 05:54:37;;;;;;;8.82;2.22;;;15.40;94.70;;;;;;5059210;28;20045;-49
2022/05/16 05:57:03;;;;;;;6.70;2.67;;;15.40;94.20;;;;;;5052745;28;20123;-50
2022/05/16 05:59:29;;;;;;;4.97;1.20;;;15.40;94.20;;;;;;5064513;28;20036;-51
2022/05/16 06:01:54;;;;;;;7.25;2.35;;;15.50;93.80;;;;;;5053421;28;20510;-50
2022/05/16 06:04:20;;;;;;;11.85;2.70;;;15.50;94.10;;;;;;5055886;28;20123;-50
2022/05/16 06:06:47;;;;;;;17.33;2.30;;;15.50;93.90;;;;;;5051381;28;20072;-51
2022/05/16 06:09:13;;;;;;;6.55;2.65;;;15.50;93.50;;;;;;5067345;28;20047;-51
2022/05/16 06:11:38;;;;;;;8.68;1.98;;;15.60;93.50;;;;;;5066092;28;20032;-50
2022/05/16 06:14:04;;;;;;;9.45;2.70;;;15.60;93.40;;;;;;5051683;28;20044;-52
2022/05/16 06:16:29;;;;;;;10.75;2.08;;;15.70;93.60;;;;;;5058799;28;20052;-50
2022/05/16 06:18:55;;;;;;;9.95;2.25;;;15.80;93.50;;;;;;5071626;28;20040;-51
2022/05/16 06:21:21;;;;;;;7.18;1.60;;;15.90;93.40;;;;;;5065059;28;20478;-50
2022/05/16 06:23:46;;;;;;;8.93;2.75;;;16.00;93.40;;;;;;5051683;28;20087;-50
2022/05/16 06:26:12;;;;;;;9.10;1.55;;;16.20;93.50;;;;;;5062438;28;20040;-49
2022/05/16 06:28:39;;;;;;;7.63;1.55;;;16.30;92.80;;;;;;5059667;28;20041;-50
2022/05/16 06:31:06;;;;;;;9.43;2.55;;;16.50;93.10;;;;;;5057146;28;20040;-51
2022/05/16 06:33:31;;;;;;;12.10;2.47;;;16.60;92.70;;;;;;5056609;28;20033;-50
2022/05/16 06:35:59;;;;;;;19.10;2.70;;;16.70;92.10;;;;;;5066165;28;20494;-50
2022/05/16 06:38:30;;;;;;;6.45;2.03;;;16.90;92.20;;;;;;5056580;28;20048;-50
2022/05/16 06:40:57;;;;;;;21.98;4.35;;;17.00;91.60;;;;;;5058692;28;20040;-50
2022/05/16 06:43:25;;;;;;;5.43;1.48;;;17.10;91.80;;;;;;5056221;28;20422;-53
2022/05/16 06:45:51;;;;;;;7.60;2.50;;;17.20;91.60;;;;;;5058940;28;20130;-49
2022/05/16 06:48:17;;;;;;;13.07;1.77;;;17.40;91.20;;;;;;5057455;28;20408;-51
2022/05/16 06:50:45;;;;;;;5.78;1.85;;;17.50;90.90;;;;;;5060344;28;20121;-50
2022/05/16 06:53:17;;;;;;;12.00;2.67;;;17.60;91.20;;;;;;5052337;28;20063;-50
2022/05/16 06:55:43;;;;;;;22.90;3.65;;;17.70;90.70;;;;;;5062045;28;20044;-53
2022/05/16 06:58:08;;;;;;;7.60;2.33;;;17.90;90.50;;;;;;5050418;28;20044;-49
2022/05/16 07:00:34;;;;;;;67.22;6.32;;;18.00;90.30;;;;;;5056472;28;20076;-52
2022/05/16 07:03:00;;;;;;;15.57;2.42;;;18.20;90.10;;;;;;5058234;28;20133;-48
2022/05/16 07:05:25;;;;;;;8.35;2.30;;;18.30;88.60;;;;;;5059778;28;20032;-47
2022/05/16 07:07:51;;;;;;;13.27;2.88;;;18.40;88.70;;;;;;5058561;28;20068;-47
2022/05/16 07:10:17;;;;;;;12.23;2.50;;;18.40;87.60;;;;;;5051259;28;20059;-47
2022/05/16 07:12:42;;;;;;;9.85;2.33;;;18.50;87.80;;;;;;5059882;28;20115;-48
2022/05/16 07:15:08;;;;;;;10.20;2.05;;;18.60;87.00;;;;;;5063987;28;20051;-47
2022/05/16 07:17:34;;;;;;;6.85;1.58;;;18.70;86.40;;;;;;5054004;28;20079;-47
2022/05/16 07:19:59;;;;;;;17.52;2.65;;;18.80;86.30;;;;;;5059291;28;20064;-46
2022/05/16 07:22:25;;;;;;;10.98;2.92;;;18.90;86.40;;;;;;5056431;28;20130;-47
2022/05/16 07:24:53;;;;;;;13.73;2.42;;;19.00;87.50;;;;;;5060707;28;20103;-47
2022/05/16 07:30:05;;;;;;;6.15;1.40;;;19.20;83.60;;;;;;5065136;28;20489;-47
2022/05/16 07:32:41;;;;;;;11.30;2.05;;;19.30;85.30;;;;;;5057870;28;20037;-47
2022/05/16 07:35:11;;;;;;;8.73;2.63;;;19.50;83.10;;;;;;5041672;28;20041;-49
2022/05/16 07:37:36;;;;;;;14.05;2.00;;;19.60;84.70;;;;;;5055864;28;20049;-49
2022/05/16 07:40:05;;;;;;;23.80;2.22;;;19.70;83.50;;;;;;5053510;28;20670;-48
2022/05/16 07:42:30;;;;;;;7.75;2.38;;;19.80;84.00;;;;;;5054596;28;20044;-46
2022/05/16 07:45:00;;;;;;;12.93;2.03;;;19.90;83.10;;;;;;5045991;28;20321;-45
2022/05/16 07:47:30;;;;;;;8.82;2.17;;;20.00;84.10;;;;;;5056090;28;20394;-46
2022/05/16 07:49:57;;;;;;;12.02;2.05;;;20.10;83.50;;;;;;5055734;28;20064;-45
2022/05/16 07:52:22;;;;;;;7.18;1.55;;;20.30;83.00;;;;;;5056633;28;20040;-45
2022/05/16 07:54:48;;;;;;;8.60;2.00;;;20.40;81.50;;;;;;5048570;28;20638;-46
2022/05/16 07:57:14;;;;;;;7.40;2.50;;;20.40;81.00;;;;;;5050814;28;20072;-46
2022/05/16 07:59:41;;;;;;;13.65;2.50;;;20.40;80.60;;;;;;5052097;28;20134;-46
2022/05/16 08:02:07;;;;;;;8.13;2.08;;;20.50;79.90;;;;;;5059158;28;20036;-44
2022/05/16 08:04:33;;;;;;;8.00;1.90;;;20.50;79.10;;;;;;5048272;28;20029;-45
2022/05/16 08:06:59;;;;;;;;;;;20.60;79.90;;;;;;5055916;28;20040;-45
2022/05/16 08:12:10;;;;;;;9.40;1.30;;;20.70;79.10;;;;;;5056712;28;20040;-45
2022/05/16 08:14:38;;;;;;;8.80;1.98;;;20.70;78.00;;;;;;5057933;28;20044;-45
2022/05/16 08:17:04;;;;;;;7.75;1.42;;;20.80;77.30;;;;;;5060162;28;20036;-45
2022/05/16 08:19:33;;;;;;;10.88;2.30;;;21.00;77.80;;;;;;5048906;28;20044;-46
2022/05/16 08:21:59;;;;;;;14.55;1.75;;;21.10;77.70;;;;;;5052873;28;20036;-46
2022/05/16 08:24:24;;;;;;;9.52;2.05;;;21.20;77.50;;;;;;5057594;28;20067;-47
2022/05/16 08:26:50;;;;;;;;;;;21.40;77.00;;;;;;5045849;28;20033;-46
2022/05/16 08:29:16;;;;;;;9.88;2.67;;;21.60;79.20;;;;;;5051806;28;20173;-47
2022/05/16 08:31:41;;;;;;;;;;;21.80;75.10;;;;;;5048308;28;20053;-46
2022/05/16 08:34:07;;;;;;;9.52;1.83;;;21.90;75.00;;;;;;5044103;28;20434;-48
2022/05/16 08:40:03;;;;;;;7.45;1.80;;;21.90;74.20;;;;;;5056819;28;19921;-46
2022/05/16 08:42:08;;;;;;;9.98;2.15;;;21.90;73.70;;;;;;5051899;28;20051;-49
2022/05/16 08:44:42;;;;;;;8.75;1.98;;;22.00;73.80;;;;;;5047998;28;20041;-47
2022/05/16 08:47:13;;;;;;;7.32;2.17;;;22.10;75.50;;;;;;5050939;28;20115;-46
2022/05/16 08:49:54;;;;;;;12.25;1.90;;;22.20;74.80;;;;;;5059296;28;20047;-46
2022/05/16 08:52:19;;;;;;;7.63;2.00;;;22.30;72.50;;;;;;5053105;28;20028;-50
2022/05/16 08:54:49;;;;;;;;;;;22.50;74.40;;;;;;5048750;28;20041;-46
2022/05/16 08:57:27;;;;;;;8.60;2.10;;;22.60;76.20;;;;;;5054350;28;20003;-47
2022/05/16 09:00:00;;;;;;;7.10;1.52;;;22.60;71.10;;;;;;5050462;28;20041;-46
2022/05/16 09:02:27;;;;;;;8.25;1.77;;;22.70;73.40;;;;;;5050658;28;20279;-46
2022/05/16 09:05:15;;;;;;;9.45;2.45;;;22.70;70.70;;;;;;5049331;28;20585;-45
2022/05/16 09:07:53;;;;;;;10.07;1.45;;;22.70;70.20;;;;;;5052839;28;20041;-46
2022/05/16 09:10:44;;;;;;;5.72;1.48;;;22.80;72.50;;;;;;5056287;28;20178;-46
2022/05/16 09:13:37;;;;;;;15.07;1.60;;;22.70;70.40;;;;;;5057243;28;20040;-46
2022/05/16 09:16:21;;;;;;;10.75;1.83;;;22.70;73.40;;;;;;5062749;28;20044;-46
2022/05/16 09:18:52;;;;;;;8.52;1.80;;;22.80;70.70;;;;;;5055122;28;20343;-46
2022/05/16 09:21:45;;;;;;;14.75;2.38;;;22.90;70.40;;;;;;5052731;28;20044;-46
2022/05/16 09:24:35;;;;;;;9.88;2.00;;;23.00;70.60;;;;;;5058901;28;20044;-46
2022/05/16 09:27:06;;;;;;;7.22;1.30;;;23.10;72.60;;;;;;5047875;28;20028;-47
2022/05/16 09:29:39;;;;;;;8.27;1.42;;;23.10;70.80;;;;;;5052325;28;20178;-47
2022/05/16 09:32:22;;;;;;;6.38;2.03;;;23.20;68.50;;;;;;5058047;28;20041;-47
2022/05/16 09:34:47;;;;;;;10.77;2.25;;;23.30;68.50;;;;;;5048017;28;20463;-47
2022/05/16 09:37:13;;;;;;;;;;;23.30;70.20;;;;;;5053497;28;20041;-47
2022/05/16 09:39:39;;;;;;;6.32;2.40;;;23.40;70.90;;;;;;5054030;28;19916;-46
2022/05/16 09:42:12;;;;;;;8.75;1.85;;;23.60;69.30;;;;;;5054725;28;20123;-46
2022/05/16 09:44:47;;;;;;;11.82;2.00;;;23.80;70.10;;;;;;5051768;28;20036;-46
2022/05/16 09:47:22;;;;;;;7.78;2.00;;;23.80;66.80;;;;;;5060742;28;20044;-47
2022/05/16 09:50:08;;;;;;;5.93;1.63;;;23.80;67.20;;;;;;5046891;28;20719;-46
2022/05/16 09:52:50;;;;;;;7.88;1.65;;;23.80;68.20;;;;;;5048800;28;20369;-47
2022/05/16 09:55:33;;;;;;;8.77;1.95;;;23.90;68.00;;;;;;5049571;28;20028;-47
2022/05/16 09:58:25;;;;;;;6.40;1.35;;;23.90;69.00;;;;;;5058054;28;20451;-46
2022/05/16 10:01:03;;;;;;;4.93;1.17;;;24.10;68.80;;;;;;5065023;28;20411;-47
2022/05/16 10:03:41;;;;;;;8.00;1.75;;;24.30;69.80;;;;;;5050649;28;20079;-45
2022/05/16 10:06:09;;;;;;;7.68;2.35;;;24.40;67.30;;;;;;5055385;28;20557;-46
2022/05/16 10:08:45;;;;;;;6.75;1.38;;;24.50;67.60;;;;;;5054063;28;20048;-47
2022/05/16 10:11:26;;;;;;;6.60;1.83;;;24.60;67.60;;;;;;5049955;28;20747;-47
2022/05/16 10:13:53;;;;;;;8.63;1.48;;;24.60;66.50;;;;;;5047975;28;20453;-46
2022/05/16 10:16:19;;;;;;;66.07;11.20;;;24.50;66.70;;;;;;5049020;28;20064;-46
2022/05/16 10:18:54;;;;;;;12.45;1.90;;;24.50;66.50;;;;;;5048104;28;20474;-49
2022/05/16 10:21:36;;;;;;;7.80;2.08;;;24.50;66.10;;;;;;5062453;28;20059;-46
2022/05/16 10:24:07;;;;;;;9.05;1.90;;;24.50;67.10;;;;;;5057057;28;20047;-47
2022/05/16 10:26:38;;;;;;;34.38;4.55;;;24.50;65.90;;;;;;5050603;28;20045;-46
2022/05/16 10:29:19;;;;;;;187.40;28.50;;;24.60;67.40;;;;;;5050362;28;20036;-48
2022/05/16 10:34:53;;;;;;;9.48;3.08;;;24.70;67.80;;;;;;5062912;28;20475;-48
2022/05/16 10:37:21;;;;;;;6.13;1.65;;;24.70;67.70;;;;;;5049503;28;20534;-47
2022/05/16 10:39:56;;;;;;;8.48;1.70;;;24.60;66.20;;;;;;5047381;28;20044;-48
2022/05/16 10:42:37;;;;;;;8.82;2.20;;;24.50;67.80;;;;;;5050545;28;20132;-46
2022/05/16 10:45:15;;;;;;;7.90;2.13;;;24.50;66.40;;;;;;5055865;28;20037;-46
2022/05/16 10:47:56;;;;;;;9.82;2.00;;;24.40;66.80;;;;;;5048654;28;20509;-47
2022/05/16 10:50:31;;;;;;;6.78;1.70;;;24.30;66.40;;;;;;5055781;28;20036;-48
2022/05/16 10:53:10;;;;;;;5.38;1.60;;;24.20;67.90;;;;;;5050992;28;20481;-47
2022/05/16 10:56:07;;;;;;;7.90;1.42;;;24.20;68.10;;;;;;5056173;28;20055;-47
2022/05/16 10:59:11;;;;;;;12.85;2.13;;;24.10;68.30;;;;;;5054108;28;20082;-49
2022/05/16 11:01:42;;;;;;;8.40;1.98;;;24.00;67.50;;;;;;5055439;28;20048;-46
2022/05/16 11:04:35;;;;;;;10.48;2.30;;;23.90;68.90;;;;;;5056716;28;20128;-46
2022/05/16 11:07:26;;;;;;;10.10;2.08;;;23.90;69.20;;;;;;5047057;28;20478;-46
2022/05/16 11:09:59;;;;;;;5.22;1.38;;;23.80;70.40;;;;;;5055140;28;20043;-46
2022/05/16 11:12:43;;;;;;;6.18;1.98;;;23.70;70.40;;;;;;5048406;28;20036;-47
2022/05/16 11:15:27;;;;;;;5.90;1.77;;;23.60;70.50;;;;;;5057830;28;20409;-46
2022/05/16 11:18:11;;;;;;;6.30;1.95;;;23.50;70.60;;;;;;5045828;28;20395;-46
2022/05/16 11:20:46;;;;;;;6.80;2.30;;;23.50;71.00;;;;;;5047971;28;20051;-46
2022/05/16 11:23:23;;;;;;;7.68;2.08;;;23.50;70.60;;;;;;5046838;28;20040;-46
2022/05/16 11:25:56;;;;;;;9.90;2.33;;;23.40;70.60;;;;;;5055908;28;20547;-46
2022/05/16 11:28:29;;;;;;;9.88;1.85;;;23.40;71.10;;;;;;5052286;28;20517;-45
2022/05/16 11:31:03;;;;;;;8.40;1.45;;;23.40;70.80;;;;;;5053131;28;20043;-47
2022/05/16 11:33:51;;;;;;;6.38;1.85;;;23.40;70.30;;;;;;5061180;28;20500;-46
2022/05/16 11:36:20;;;;;;;12.70;1.98;;;23.40;70.90;;;;;;5045765;28;20123;-47
2022/05/16 11:38:59;;;;;;;6.25;1.88;;;23.30;71.80;;;;;;5048652;28;20086;-46
2022/05/16 11:41:53;;;;;;;7.57;1.55;;;23.30;70.80;;;;;;5054440;28;20203;-46
2022/05/16 11:44:41;;;;;;;10.45;2.22;;;23.20;71.50;;;;;;5060789;28;20087;-46
2022/05/16 11:47:10;;;;;;;6.82;2.03;;;23.30;71.70;;;;;;5046329;28;20406;-47
2022/05/16 11:49:50;;;;;;;6.00;1.63;;;23.20;71.40;;;;;;5045484;28;20644;-46
2022/05/16 11:52:28;;;;;;;6.80;1.73;;;23.20;72.20;;;;;;5065649;28;20497;-47
2022/05/16 12:01:04;;;;;;;4.18;1.38;;;23.10;72.60;;;;;;5054421;28;20044;-45
2022/05/16 12:03:44;;;;;;;8.25;1.40;;;23.10;73.10;;;;;;5045875;28;20114;-46
2022/05/16 12:06:26;;;;;;;4.32;1.40;;;23.10;73.00;;;;;;5051345;28;20390;-46
2022/05/16 12:09:16;;;;;;;8.77;2.17;;;23.10;73.70;;;;;;5063936;28;20036;-48
2022/05/16 12:12:00;;;;;;;7.28;1.45;;;23.10;74.50;;;;;;5052484;28;20029;-46
2022/05/16 12:14:33;;;;;;;10.90;1.83;;;23.20;73.80;;;;;;5045695;28;20037;-46
2022/05/16 12:17:06;;;;;;;8.85;1.30;;;23.20;73.80;;;;;;5059537;28;20161;-46
2022/05/16 12:19:37;;;;;;;10.45;1.83;;;23.30;74.50;;;;;;5062689;28;20493;-48
2022/05/16 12:22:06;;;;;;;6.13;1.90;;;23.40;75.10;;;;;;5055048;28;20111;-46
2022/05/16 12:24:52;;;;;;;5.20;1.20;;;23.40;74.00;;;;;;5045611;28;20037;-47
2022/05/16 12:27:27;;;;;;;5.65;1.52;;;23.40;74.20;;;;;;5052601;28;20060;-47
2022/05/16 12:29:56;;;;;;;9.75;1.65;;;23.40;74.20;;;;;;5046236;28;20571;-47
2022/05/16 12:32:31;;;;;;;4.93;1.38;;;23.50;74.80;;;;;;5061506;28;20101;-49
2022/05/16 12:35:11;;;;;;;4.30;1.67;;;23.50;75.50;;;;;;5064884;28;20342;-46
2022/05/16 12:37:38;;;;;;;11.18;2.22;;;23.50;75.60;;;;;;5064899;28;20502;-46
2022/05/16 12:40:30;;;;;;;7.93;1.35;;;23.50;75.10;;;;;;5065069;28;20136;-46
2022/05/16 12:43:15;;;;;;;3.78;1.85;;;23.50;75.00;;;;;;5033240;28;20056;-46
2022/05/16 12:46:05;;;;;;;227.48;19.25;;;23.50;76.60;;;;;;5055074;28;20036;-46
2022/05/16 12:48:37;;;;;;;6.63;1.85;;;23.60;75.90;;;;;;5064589;28;20040;-46
2022/05/16 12:51:21;;;;;;;7.20;2.03;;;23.60;76.40;;;;;;5064547;28;20177;-46
2022/05/16 12:54:13;;;;;;;5.53;1.90;;;23.60;76.70;;;;;;5065104;28;20386;-46
2022/05/16 12:56:49;;;;;;;4.68;2.03;;;23.70;75.50;;;;;;5064175;28;20056;-47
2022/05/16 12:59:37;;;;;;;3.60;0.90;;;23.70;75.70;;;;;;5064807;28;20421;-46
2022/05/16 13:02:18;;;;;;;4.55;1.17;;;23.80;75.50;;;;;;5064233;28;20040;-46
2022/05/16 13:05:13;;;;;;;3.83;1.38;;;23.80;74.20;;;;;;5063798;28;20033;-46
2022/05/16 13:08:05;;;;;;;17.92;1.92;;;23.90;75.30;;;;;;5064002;28;20051;-46
2022/05/16 13:11:00;;;;;;;6.03;1.33;;;23.90;75.70;;;;;;5050932;28;20287;-46
2022/05/16 13:13:44;;;;;;;8.40;1.48;;;24.00;76.70;;;;;;5045174;28;20129;-47
2022/05/16 13:16:24;;;;;;;6.47;1.58;;;24.10;75.70;;;;;;5059094;28;20122;-47
2022/05/16 13:19:10;;;;;;;6.57;1.40;;;24.10;75.40;;;;;;5072883;28;20096;-46
2022/05/16 13:21:38;;;;;;;5.03;2.63;;;24.10;75.70;;;;;;5060997;28;20048;-46
2022/05/16 13:24:12;;;;;;;7.72;1.70;;;24.10;75.80;;;;;;5058224;28;20054;-47
2022/05/16 13:29:22;;;;;;;3.75;1.33;;;24.20;75.70;;;;;;5056155;28;20037;-46
2022/05/16 13:31:52;;;;;;;7.20;1.95;;;24.30;75.30;;;;;;5064279;28;20116;-47
2022/05/16 13:34:41;;;;;;;4.65;2.30;;;24.30;75.50;;;;;;5050540;28;20264;-46
2022/05/16 13:37:08;;;;;;;3.72;1.30;;;24.30;75.40;;;;;;5052351;28;20044;-46